EDTY

Adolf Würth Airport

Schwäbisch Hall, Germany
TAF EDTY 211700Z 2118/2203 30012KT 9999 FEW040 BECMG 2119/2121 29006KT
Issued Valid From Valid To
Jun-21 @ 17:00 UTC
(an hour ago)
Jun-21 @ 18:00 UTC
(3 minutes ago)
Jun-22 @ 03:00 UTC
(in 9 hours)
Jun-21 @ 18:00 to Jun-21 @ 19:00
TAF EDTY 211700Z 2118/2203 30012KT 9999 FEW040
Wind Visibility Clouds
300° at 12 knots 10,000+ meters
  • Few at 4,000' AGL
Becoming Jun-21 @ 19:00 to Jun-22 @ 03:00
BECMG 2119/2121 29006KT
Wind Visibility Clouds
290° at 6 knots 10,000+ meters
  • Few at 4,000' AGL
TAF EDTY 211700Z 2118/2203 30012KT 9999 FEW040 BECMG 2119/2121 29006KT
Issued Jun-21 @ 17:00 UTC
(an hour ago)
Valid From Jun-21 @ 18:00 UTC
(3 minutes ago)
Valid To Jun-22 @ 03:00 UTC
(in 9 hours)
Jun-21 @ 18:00 - Jun-21 @ 19:00
Wind Visibility
300° at 12 knots 10,000+ meters
Clouds
  • Few at 4,000' AGL
Becoming Jun-21 @ 19:00 - Jun-22 @ 03:00
Wind Visibility
290° at 6 knots 10,000+ meters
Clouds
  • Few at 4,000' AGL